createdAt,value
2019-04-25T00:00:23.238Z,5.17
2019-04-25T00:02:53.141Z,5.27
2019-04-25T00:05:23.005Z,5.60
2019-04-25T00:07:52.887Z,6.50
2019-04-25T00:10:22.808Z,5.00
2019-04-25T00:12:52.614Z,3.17
2019-04-25T00:15:22.452Z,3.40
2019-04-25T00:17:52.373Z,5.27
2019-04-25T00:20:22.502Z,3.47
2019-04-25T00:22:58.474Z,5.83
2019-04-25T00:25:48.045Z,3.17
2019-04-25T00:28:18.333Z,2.83
2019-04-25T00:30:48.158Z,5.27
2019-04-25T00:33:18.011Z,3.73
2019-04-25T00:35:47.849Z,2.93
2019-04-25T00:38:17.667Z,3.47
2019-04-25T00:40:48.072Z,2.63
2019-04-25T00:43:17.882Z,2.53
2019-04-25T00:45:47.713Z,3.07
2019-04-25T00:48:17.643Z,2.47
2019-04-25T00:50:48.000Z,2.30
2019-04-25T00:53:17.833Z,2.53
2019-04-25T00:55:48.580Z,3.23
2019-04-25T00:58:42.175Z,3.63
2019-04-25T01:01:21.879Z,3.47
2019-04-25T01:03:53.354Z,2.80
2019-04-25T01:06:23.460Z,3.07
2019-04-25T01:08:54.590Z,2.97
2019-04-25T01:11:24.850Z,3.30
2019-04-25T01:13:54.776Z,2.23
2019-04-25T01:16:24.559Z,4.00
2019-04-25T01:18:55.365Z,5.47
2019-04-25T01:21:25.440Z,4.03
2019-04-25T01:23:55.792Z,2.50
2019-04-25T01:26:25.927Z,2.03
2019-04-25T01:28:56.050Z,2.43
2019-04-25T01:31:27.604Z,2.20
2019-04-25T01:33:57.568Z,2.03
2019-04-25T01:36:55.903Z,3.50
2019-04-25T01:39:55.060Z,2.13
2019-04-25T01:42:56.115Z,2.53
2019-04-25T01:45:29.314Z,2.23
2019-04-25T01:47:59.210Z,3.33
2019-04-25T01:50:28.972Z,2.47
2019-04-25T01:52:58.846Z,2.13
2019-04-25T01:55:28.640Z,2.27
2019-04-25T01:57:59.348Z,2.47
2019-04-25T02:00:36.566Z,2.03
2019-04-25T02:03:07.569Z,3.07
2019-04-25T02:05:37.493Z,2.57
2019-04-25T02:08:07.533Z,2.30
2019-04-25T02:10:37.383Z,2.50
2019-04-25T02:13:09.718Z,2.80
2019-04-25T02:15:39.593Z,2.10
2019-04-25T02:18:09.344Z,2.60
2019-04-25T02:20:39.109Z,2.33
2019-04-25T02:23:08.921Z,3.13
2019-04-25T02:25:38.823Z,4.23
2019-04-25T02:28:08.603Z,2.30
2019-04-25T02:30:38.765Z,2.40
2019-04-25T02:33:09.315Z,3.13
2019-04-25T02:35:42.883Z,3.27
2019-04-25T02:38:10.791Z,3.97
2019-04-25T02:40:40.621Z,2.70
2019-04-25T02:43:10.476Z,2.70
2019-04-25T02:46:11.364Z,2.70
2019-04-25T02:49:09.241Z,2.70
2019-04-25T02:51:41.057Z,3.13
2019-04-25T02:54:10.914Z,4.77
2019-04-25T02:56:40.748Z,2.87
2019-04-25T02:59:10.551Z,3.10
2019-04-25T03:01:40.523Z,3.20
2019-04-25T03:04:11.431Z,3.33
2019-04-25T03:06:41.516Z,3.63
2019-04-25T03:09:15.130Z,3.07
2019-04-25T03:11:45.075Z,2.40
2019-04-25T03:14:15.683Z,3.67
2019-04-25T03:16:45.440Z,3.13
2019-04-25T03:19:43.973Z,3.37
2019-04-25T03:22:15.918Z,4.00
2019-04-25T03:24:45.996Z,2.73
2019-04-25T03:27:15.926Z,3.93
2019-04-25T03:29:45.869Z,3.27
2019-04-25T03:32:19.569Z,4.90
2019-04-25T03:34:47.202Z,3.33
2019-04-25T03:37:17.187Z,2.83
2019-04-25T03:39:47.046Z,3.27
2019-04-25T03:42:16.907Z,4.20
2019-04-25T03:44:46.708Z,3.00
2019-04-25T03:47:16.592Z,2.43
2019-04-25T03:49:46.342Z,2.60
2019-04-25T03:52:16.117Z,3.17
2019-04-25T03:54:46.002Z,3.00
2019-04-25T03:57:15.802Z,2.80
2019-04-25T03:59:45.562Z,3.70
2019-04-25T04:02:15.390Z,3.87
2019-04-25T04:04:45.139Z,3.17
2019-04-25T04:07:15.927Z,2.63
2019-04-25T04:09:45.803Z,3.37
2019-04-25T04:12:15.763Z,4.10
2019-04-25T04:14:45.630Z,3.57
2019-04-25T04:17:24.237Z,3.33
2019-04-25T04:20:11.551Z,5.47
2019-04-25T04:22:44.319Z,4.03
2019-04-25T04:25:15.952Z,4.20
2019-04-25T04:27:45.885Z,5.23
2019-04-25T04:30:16.452Z,5.50
2019-04-25T04:32:46.411Z,6.23
2019-04-25T04:35:17.459Z,3.70
2019-04-25T04:37:47.365Z,6.20
2019-04-25T04:40:18.544Z,5.17
2019-04-25T04:42:48.609Z,4.67
2019-04-25T04:45:18.702Z,7.43
2019-04-25T04:47:48.491Z,6.80
2019-04-25T04:50:18.740Z,7.77
2019-04-25T04:52:48.580Z,9.83
2019-04-25T04:55:18.837Z,11.27
2019-04-25T04:57:49.671Z,12.70
2019-04-25T05:00:19.687Z,10.63
2019-04-25T05:03:01.680Z,11.67
2019-04-25T05:06:03.716Z,14.87
2019-04-25T05:08:36.682Z,13.50
2019-04-25T05:11:06.458Z,10.73
2019-04-25T05:13:36.304Z,12.63
2019-04-25T05:16:06.166Z,14.17
2019-04-25T05:18:39.473Z,12.17
2019-04-25T05:21:07.470Z,12.37
2019-04-25T05:23:37.314Z,14.53
2019-04-25T05:26:07.367Z,13.33
2019-04-25T05:28:37.203Z,12.60
2019-04-25T05:31:25.611Z,14.70
2019-04-25T05:33:55.603Z,10.73
2019-04-25T05:36:29.251Z,16.10
2019-04-25T05:38:59.202Z,14.43
2019-04-25T05:41:41.278Z,10.23
2019-04-25T05:44:11.052Z,15.60
2019-04-25T05:46:40.896Z,12.90
2019-04-25T05:49:10.697Z,13.00
2019-04-25T05:51:40.507Z,15.03
2019-04-25T05:54:10.414Z,12.80
2019-04-25T05:56:40.183Z,12.07
2019-04-25T05:59:10.082Z,12.27
2019-04-25T06:01:39.903Z,10.67
2019-04-25T06:04:09.911Z,11.63
2019-04-25T06:06:39.710Z,16.03
2019-04-25T06:09:24.031Z,11.07
2019-04-25T06:12:03.084Z,11.57
2019-04-25T06:14:33.424Z,11.50
2019-04-25T06:17:06.362Z,11.47
2019-04-25T06:19:48.992Z,12.20
2019-04-25T06:22:24.675Z,12.27
2019-04-25T06:25:00.053Z,10.33
2019-04-25T06:27:43.637Z,11.23
2019-04-25T06:30:29.799Z,11.33
2019-04-25T06:32:59.667Z,12.27
2019-04-25T06:35:29.619Z,15.07
2019-04-25T06:37:59.450Z,14.03
2019-04-25T06:40:30.581Z,22.07
2019-04-25T06:43:00.578Z,21.77
2019-04-25T06:45:44.174Z,20.97
2019-04-25T06:48:36.347Z,20.53
2019-04-25T06:51:06.394Z,21.30
2019-04-25T06:53:36.207Z,15.10
2019-04-25T06:56:06.449Z,15.80
2019-04-25T06:58:36.435Z,12.77
2019-04-25T07:01:06.324Z,11.30
2019-04-25T07:03:36.113Z,14.53
2019-04-25T07:06:06.049Z,15.90
2019-04-25T07:08:35.837Z,13.77
2019-04-25T07:11:06.035Z,12.80
2019-04-25T07:13:38.794Z,10.80
2019-04-25T07:16:07.688Z,10.77
2019-04-25T07:18:37.607Z,15.10
2019-04-25T07:21:07.497Z,11.43
2019-04-25T07:23:38.084Z,11.10
2019-04-25T07:26:17.931Z,11.97
2019-04-25T07:29:05.461Z,12.67
2019-04-25T07:31:44.288Z,13.20
2019-04-25T07:34:22.219Z,12.67
2019-04-25T07:36:53.464Z,13.57
2019-04-25T07:39:23.682Z,13.20
2019-04-25T07:41:54.092Z,13.53
2019-04-25T07:44:35.339Z,10.73
2019-04-25T07:46:55.580Z,9.57
2019-04-25T07:49:26.709Z,11.53
2019-04-25T07:51:56.896Z,9.70
2019-04-25T07:54:27.862Z,10.60
2019-04-25T07:56:58.328Z,9.97
2019-04-25T07:59:28.988Z,8.63
2019-04-25T08:01:58.991Z,8.47
2019-04-25T08:04:29.068Z,9.70
2019-04-25T08:06:58.984Z,8.43
2019-04-25T08:09:29.549Z,10.30
2019-04-25T08:11:59.471Z,10.30
2019-04-25T08:15:00.234Z,12.03
2019-04-25T08:17:48.047Z,13.17
2019-04-25T08:20:19.982Z,11.07
2019-04-25T08:22:56.539Z,8.40
2019-04-25T08:25:23.510Z,9.50
2019-04-25T08:27:55.086Z,8.70
2019-04-25T08:30:25.034Z,9.07
2019-04-25T08:32:55.467Z,9.73
2019-04-25T08:35:25.515Z,7.50
2019-04-25T08:37:55.286Z,7.87
2019-04-25T08:40:25.491Z,9.57
2019-04-25T08:42:55.523Z,8.97
2019-04-25T08:45:25.628Z,9.47
2019-04-25T08:47:55.451Z,7.10
2019-04-25T08:50:33.114Z,8.77
2019-04-25T08:53:03.885Z,8.47
2019-04-25T08:55:59.076Z,7.97
2019-04-25T08:58:47.876Z,9.03
2019-04-25T09:01:39.502Z,9.47
2019-04-25T09:04:17.594Z,9.17
2019-04-25T09:06:47.372Z,10.03
2019-04-25T09:09:17.169Z,10.97
2019-04-25T09:11:47.095Z,9.53
2019-04-25T09:14:16.931Z,11.20
2019-04-25T09:16:46.839Z,10.17
2019-04-25T09:19:16.716Z,11.07
2019-04-25T09:21:49.512Z,10.83
2019-04-25T09:24:19.163Z,10.50
2019-04-25T09:26:49.043Z,12.00
2019-04-25T09:29:19.877Z,9.40
2019-04-25T09:31:49.919Z,9.60
2019-04-25T09:34:19.710Z,10.67
2019-04-25T09:36:49.535Z,12.83
2019-04-25T09:39:41.341Z,10.43
2019-04-25T09:42:11.546Z,9.50
2019-04-25T09:45:00.362Z,12.77
2019-04-25T09:47:30.311Z,11.23
2019-04-25T09:50:01.705Z,10.50
2019-04-25T09:52:31.629Z,11.40
2019-04-25T09:55:13.281Z,12.50
2019-04-25T09:58:00.083Z,11.50
2019-04-25T10:00:38.159Z,13.30
2019-04-25T10:03:08.202Z,12.00
2019-04-25T10:05:38.468Z,12.97
2019-04-25T10:08:08.586Z,9.83
2019-04-25T10:10:38.857Z,11.50
2019-04-25T10:13:09.107Z,9.03
2019-04-25T10:16:04.573Z,11.53
2019-04-25T10:18:35.344Z,13.63
2019-04-25T10:21:08.352Z,11.23
2019-04-25T10:23:38.276Z,11.37
2019-04-25T10:26:09.978Z,11.37
2019-04-25T10:28:41.550Z,8.40
2019-04-25T10:31:13.658Z,10.80
2019-04-25T10:33:46.670Z,10.87
2019-04-25T10:36:15.511Z,11.63
2019-04-25T10:39:01.498Z,11.10
2019-04-25T10:41:17.435Z,12.30
2019-04-25T10:43:48.129Z,13.47
2019-04-25T10:46:18.410Z,14.17
2019-04-25T10:48:48.347Z,13.63
2019-04-25T10:51:18.109Z,10.40
2019-04-25T10:53:48.791Z,12.67
2019-04-25T10:56:18.751Z,14.77
2019-04-25T10:58:48.606Z,14.97
2019-04-25T11:01:18.412Z,17.97
2019-04-25T11:04:04.578Z,13.03
2019-04-25T11:06:34.530Z,16.03
2019-04-25T11:09:06.032Z,12.87
2019-04-25T11:11:36.694Z,14.67
2019-04-25T11:14:07.571Z,12.37
2019-04-25T11:16:37.537Z,13.20
2019-04-25T11:19:07.458Z,11.43
2019-04-25T11:21:37.390Z,13.73
2019-04-25T11:24:07.514Z,11.17
2019-04-25T11:26:37.421Z,14.93
2019-04-25T11:29:07.522Z,12.43
2019-04-25T11:31:46.169Z,14.10
2019-04-25T11:34:17.799Z,12.33
2019-04-25T11:36:48.428Z,12.97
2019-04-25T11:39:35.915Z,17.63
2019-04-25T11:42:16.507Z,14.03
2019-04-25T11:44:46.658Z,13.27
2019-04-25T11:47:16.496Z,12.87
2019-04-25T11:49:47.741Z,14.50
2019-04-25T11:52:27.570Z,15.20
2019-04-25T11:54:50.234Z,13.23
2019-04-25T11:57:20.108Z,13.80
2019-04-25T11:59:50.606Z,13.97
2019-04-25T12:02:21.967Z,15.73
2019-04-25T12:04:51.842Z,13.30
2019-04-25T12:07:21.622Z,13.77
2019-04-25T12:09:52.237Z,11.93
2019-04-25T12:12:23.588Z,17.50
2019-04-25T12:14:55.019Z,13.60
2019-04-25T12:17:26.195Z,15.07
2019-04-25T12:19:56.241Z,15.70
2019-04-25T12:22:26.189Z,12.73
2019-04-25T12:24:55.955Z,17.13
2019-04-25T12:27:26.108Z,14.63
2019-04-25T12:29:56.080Z,15.90
2019-04-25T12:32:25.865Z,19.00
2019-04-25T12:34:56.132Z,18.43
2019-04-25T12:37:26.171Z,16.60
2019-04-25T12:39:56.126Z,17.50
2019-04-25T12:42:28.923Z,14.63
2019-04-25T12:45:16.709Z,19.93
2019-04-25T12:47:47.847Z,16.43
2019-04-25T12:50:18.808Z,19.60
2019-04-25T12:52:48.884Z,18.73
2019-04-25T12:55:19.381Z,17.43
2019-04-25T12:57:49.447Z,18.10
2019-04-25T13:00:24.261Z,15.60
2019-04-25T13:02:55.046Z,19.50
2019-04-25T13:05:24.838Z,16.97
2019-04-25T13:07:57.394Z,15.07
2019-04-25T13:10:26.257Z,17.33
2019-04-25T13:12:56.051Z,17.13
2019-04-25T13:15:27.051Z,17.03
2019-04-25T13:17:57.350Z,16.57
2019-04-25T13:20:27.326Z,17.27
2019-04-25T13:22:57.176Z,16.63
2019-04-25T13:25:27.047Z,18.63
2019-04-25T13:28:09.038Z,16.37
2019-04-25T13:31:05.883Z,14.63
2019-04-25T13:33:59.865Z,16.53
2019-04-25T13:36:30.187Z,18.23
2019-04-25T13:38:59.947Z,18.07
2019-04-25T13:41:29.780Z,15.20
2019-04-25T13:43:59.687Z,15.50
2019-04-25T13:46:29.622Z,17.37
2019-04-25T13:48:59.603Z,18.43
2019-04-25T13:51:29.494Z,19.37
2019-04-25T13:53:59.358Z,18.07
2019-04-25T13:56:29.458Z,18.43
2019-04-25T13:58:59.311Z,19.90
2019-04-25T14:01:29.700Z,17.10
2019-04-25T14:03:59.607Z,18.13
2019-04-25T14:06:30.350Z,18.37
2019-04-25T14:09:00.193Z,18.07
2019-04-25T14:11:30.160Z,19.73
2019-04-25T14:14:00.167Z,24.07
2019-04-25T14:16:48.947Z,18.73
2019-04-25T14:19:33.559Z,18.40
2019-04-25T14:22:04.627Z,17.90
2019-04-25T14:24:35.827Z,19.13
2019-04-25T14:27:06.298Z,15.87
2019-04-25T14:29:36.268Z,18.47
2019-04-25T14:32:08.126Z,19.20
2019-04-25T14:34:37.956Z,18.17
2019-04-25T14:37:07.803Z,18.47
2019-04-25T14:39:37.640Z,17.97
2019-04-25T14:42:07.502Z,17.70
2019-04-25T14:44:37.351Z,20.87
2019-04-25T14:47:07.267Z,20.03
2019-04-25T14:49:37.131Z,18.37
2019-04-25T14:52:06.919Z,15.87
2019-04-25T14:54:42.763Z,18.83
2019-04-25T14:57:24.707Z,17.97
2019-04-25T14:59:54.594Z,18.20
2019-04-25T15:02:26.019Z,16.90
2019-04-25T15:04:55.882Z,17.90
2019-04-25T15:07:25.691Z,16.43
2019-04-25T15:09:55.545Z,16.93
2019-04-25T15:12:25.399Z,16.83
2019-04-25T15:14:55.343Z,17.63
2019-04-25T15:17:25.176Z,19.70
2019-04-25T15:19:54.934Z,18.60
2019-04-25T15:22:25.666Z,17.73
2019-04-25T15:24:55.491Z,18.40
2019-04-25T15:27:25.375Z,21.90
2019-04-25T15:29:55.459Z,18.30
2019-04-25T15:32:28.229Z,17.63
2019-04-25T15:34:58.854Z,15.03
2019-04-25T15:37:50.197Z,18.27
2019-04-25T15:40:42.046Z,16.33
2019-04-25T15:43:26.204Z,16.40
2019-04-25T15:46:03.888Z,14.80
2019-04-25T15:48:33.914Z,17.03
2019-04-25T15:51:03.733Z,16.30
2019-04-25T15:53:33.515Z,14.13
2019-04-25T15:56:03.475Z,15.50
2019-04-25T15:58:33.344Z,15.33
2019-04-25T16:01:04.842Z,14.57
2019-04-25T16:03:35.212Z,17.17
2019-04-25T16:06:05.294Z,16.60
2019-04-25T16:08:35.193Z,14.67
2019-04-25T16:11:05.204Z,13.30
2019-04-25T16:13:35.079Z,13.73
2019-04-25T16:16:05.546Z,11.63
2019-04-25T16:18:35.391Z,11.93
2019-04-25T16:21:05.594Z,14.50
2019-04-25T16:23:36.362Z,13.93
2019-04-25T16:26:06.803Z,13.07
2019-04-25T16:28:36.578Z,14.03
2019-04-25T16:31:07.975Z,13.10
2019-04-25T16:33:37.935Z,10.43
2019-04-25T16:36:09.206Z,12.13
2019-04-25T16:38:39.254Z,11.63
2019-04-25T16:41:09.721Z,11.00
2019-04-25T16:43:43.192Z,11.07
2019-04-25T16:46:14.030Z,11.83
2019-04-25T16:48:43.782Z,9.47
2019-04-25T16:51:13.749Z,10.43
2019-04-25T16:53:43.569Z,9.43
2019-04-25T16:56:13.520Z,12.17
2019-04-25T16:58:43.428Z,12.00
2019-04-25T17:01:15.222Z,9.77
2019-04-25T17:03:45.658Z,10.43
2019-04-25T17:06:15.845Z,9.13
2019-04-25T17:08:46.005Z,10.60
2019-04-25T17:11:15.949Z,10.40
2019-04-25T17:14:13.548Z,10.40
2019-04-25T17:17:17.235Z,9.03
2019-04-25T17:20:08.930Z,9.77
2019-04-25T17:22:39.611Z,12.80
2019-04-25T17:25:09.879Z,10.80
2019-04-25T17:27:39.914Z,11.67
2019-04-25T17:30:10.379Z,11.57
2019-04-25T17:32:58.014Z,14.30
2019-04-25T17:35:55.666Z,13.67
2019-04-25T17:38:47.764Z,10.63
2019-04-25T17:41:17.677Z,10.50
2019-04-25T17:43:47.610Z,14.77
2019-04-25T17:46:18.843Z,11.60
2019-04-25T17:48:48.673Z,9.57
2019-04-25T17:51:18.572Z,13.77
2019-04-25T17:53:48.447Z,11.40
2019-04-25T17:56:18.540Z,11.83
2019-04-25T17:58:48.294Z,12.60
2019-04-25T18:01:22.649Z,9.47
2019-04-25T18:03:52.486Z,12.27
2019-04-25T18:06:22.311Z,13.27
2019-04-25T18:08:52.148Z,12.80
2019-04-25T18:11:22.014Z,12.33
2019-04-25T18:13:51.820Z,11.03
2019-04-25T18:16:43.559Z,11.77
2019-04-25T18:19:35.302Z,14.37
2019-04-25T18:22:13.012Z,18.37
2019-04-25T18:25:10.653Z,9.87
2019-04-25T18:28:03.982Z,13.37
2019-04-25T18:30:35.599Z,13.30
2019-04-25T18:33:11.855Z,11.70
2019-04-25T18:35:43.062Z,12.33
2019-04-25T18:38:25.968Z,10.73
2019-04-25T18:41:05.191Z,11.03
2019-04-25T18:43:41.428Z,11.83
2019-04-25T18:46:17.580Z,12.07
2019-04-25T18:48:47.450Z,13.33
2019-04-25T18:51:17.275Z,15.17
2019-04-25T18:54:04.982Z,14.93
2019-04-25T18:56:53.635Z,13.73
2019-04-25T18:59:41.587Z,10.73
2019-04-25T19:02:29.492Z,12.27
2019-04-25T19:05:36.335Z,11.60
2019-04-25T19:08:06.544Z,10.70
2019-04-25T19:10:36.338Z,14.70
2019-04-25T19:13:12.554Z,12.50
2019-04-25T19:15:39.704Z,9.33
2019-04-25T19:18:09.290Z,10.50
2019-04-25T19:20:39.989Z,10.20
2019-04-25T19:23:09.896Z,9.57
2019-04-25T19:25:40.273Z,9.63
2019-04-25T19:28:10.273Z,8.93
2019-04-25T19:30:40.999Z,9.70
2019-04-25T19:33:11.033Z,9.53
2019-04-25T19:35:41.700Z,8.87
2019-04-25T19:38:11.498Z,11.33
2019-04-25T19:41:00.543Z,9.93
2019-04-25T19:43:34.824Z,11.17
2019-04-25T19:46:04.746Z,8.97
2019-04-25T19:48:34.584Z,10.23
2019-04-25T19:51:04.413Z,9.00
2019-04-25T19:53:34.391Z,10.77
2019-04-25T19:56:04.217Z,7.17
2019-04-25T19:58:34.014Z,8.30
2019-04-25T20:01:03.896Z,11.57
2019-04-25T20:03:54.127Z,8.20
2019-04-25T20:06:47.879Z,11.00
2019-04-25T20:09:35.428Z,9.03
2019-04-25T20:12:05.474Z,8.73
2019-04-25T20:14:35.313Z,8.53
2019-04-25T20:17:05.066Z,11.17
2019-04-25T20:19:34.940Z,8.33
2019-04-25T20:22:04.736Z,9.07
2019-04-25T20:24:34.652Z,10.17
2019-04-25T20:27:04.564Z,10.67
2019-04-25T20:29:34.487Z,9.27
2019-04-25T20:32:07.021Z,8.23
2019-04-25T20:34:35.894Z,8.97
2019-04-25T20:37:05.858Z,9.37
2019-04-25T20:39:35.706Z,9.20
2019-04-25T20:42:05.600Z,10.97
2019-04-25T20:44:36.652Z,9.40
2019-04-25T20:47:06.629Z,8.73
2019-04-25T20:49:36.391Z,7.80
2019-04-25T20:52:06.477Z,5.33
2019-04-25T20:54:36.242Z,8.47
2019-04-25T20:57:06.250Z,6.57
2019-04-25T20:59:36.072Z,8.13
2019-04-25T21:02:06.838Z,6.33
2019-04-25T21:04:43.074Z,7.13
2019-04-25T21:07:13.002Z,8.00
2019-04-25T21:09:42.811Z,8.17
2019-04-25T21:12:12.582Z,5.63
2019-04-25T21:15:10.092Z,7.07
2019-04-25T21:18:14.141Z,8.57
2019-04-25T21:20:44.129Z,7.53
2019-04-25T21:23:14.090Z,5.93
2019-04-25T21:25:43.969Z,6.33
2019-04-25T21:28:13.822Z,6.47
2019-04-25T21:30:43.731Z,7.47
2019-04-25T21:33:13.584Z,7.67
2019-04-25T21:35:43.705Z,6.57
2019-04-25T21:38:15.292Z,7.83
2019-04-25T21:41:10.770Z,4.53
2019-04-25T21:43:45.343Z,6.50
2019-04-25T21:46:15.422Z,7.30
2019-04-25T21:48:45.577Z,6.67
2019-04-25T21:51:34.108Z,4.40
2019-04-25T21:54:04.315Z,6.83
2019-04-25T21:56:34.538Z,7.67
2019-04-25T21:59:04.423Z,6.17
2019-04-25T22:01:40.188Z,6.40
2019-04-25T22:04:10.550Z,7.43
2019-04-25T22:06:40.699Z,7.80
2019-04-25T22:09:16.033Z,6.33
2019-04-25T22:11:46.130Z,6.77
2019-04-25T22:14:16.823Z,8.27
2019-04-25T22:16:47.073Z,7.57
2019-04-25T22:19:17.479Z,6.80
2019-04-25T22:21:47.726Z,9.13
2019-04-25T22:24:17.610Z,6.77
2019-04-25T22:26:49.456Z,8.30
2019-04-25T22:29:19.533Z,7.73
2019-04-25T22:32:11.221Z,5.97
2019-04-25T22:34:52.367Z,7.07
2019-04-25T22:37:21.509Z,8.07
2019-04-25T22:39:51.616Z,5.97
2019-04-25T22:42:21.406Z,6.97
2019-04-25T22:44:51.302Z,5.93
2019-04-25T22:47:21.188Z,5.80
2019-04-25T22:49:50.991Z,6.27
2019-04-25T22:52:21.079Z,7.63
2019-04-25T22:54:51.019Z,6.67
2019-04-25T22:57:21.118Z,6.63
2019-04-25T22:59:50.916Z,5.90
2019-04-25T23:02:27.726Z,8.20
2019-04-25T23:05:15.746Z,9.60
2019-04-25T23:07:41.669Z,7.57
2019-04-25T23:10:12.351Z,6.70
2019-04-25T23:12:42.347Z,8.70
2019-04-25T23:15:13.621Z,6.67
2019-04-25T23:17:43.438Z,5.50
2019-04-25T23:20:13.938Z,9.93
2019-04-25T23:22:43.913Z,9.03
2019-04-25T23:25:15.589Z,8.43
2019-04-25T23:28:08.017Z,9.27
2019-04-25T23:30:47.198Z,7.73
2019-04-25T23:33:17.147Z,8.03
2019-04-25T23:35:48.900Z,10.30
2019-04-25T23:38:18.679Z,7.30
2019-04-25T23:40:48.743Z,7.03
2019-04-25T23:43:18.795Z,10.70
2019-04-25T23:45:48.678Z,10.87
2019-04-25T23:48:18.760Z,7.10
2019-04-25T23:50:48.573Z,7.10
2019-04-25T23:53:18.404Z,8.30
2019-04-25T23:55:48.319Z,6.87
2019-04-25T23:58:18.128Z,8.03
